Crestline, Alabama
Current Conditions -  °F | °C
As of 10:53 AM on Wednesday 28 Jan 2015 (Local Time) from KBHM Reporting Station
Clear Clear  
Wind Chill: 44°   Ceiling: Unl
Heat Index: 46°   Visibility: 10mi
Dew Point: 27°   Wind: 5mph
Humidity: 47%   Direction: 20°NNE
Pressure: 30.33"   Gusts: NA
Location:  33.5082°N, 86.7399°W
Report Text: KBHM 281653Z 02004KT 10SM CLR 08/M03 A3033 RMK AO2 SLP271 T00781028
Loading
Personal Weather Stations






























Interactive Weather Map New forecast layout! Learn more

10-Day Weather Forecast

Advertisements
Track Severe Weather on mobile